createdAt,value
2018-06-07T00:02:28.016Z,15.20
2018-06-07T00:04:56.095Z,15.20
2018-06-07T00:07:24.147Z,15.10
2018-06-07T00:09:52.246Z,15.00
2018-06-07T00:12:20.296Z,15.00
2018-06-07T00:14:48.362Z,15.00
2018-06-07T00:19:44.207Z,15.00
2018-06-07T00:22:12.387Z,15.00
2018-06-07T00:24:40.470Z,14.90
2018-06-07T00:27:08.615Z,14.90
2018-06-07T00:32:04.484Z,14.70
2018-06-07T00:34:32.563Z,14.70
2018-06-07T00:37:00.608Z,14.70
2018-06-07T00:41:56.591Z,14.60
2018-06-07T00:44:24.621Z,14.70
2018-06-07T00:49:20.705Z,14.60
2018-06-07T00:51:48.736Z,14.50
2018-06-07T00:56:55.972Z,14.40
2018-06-07T00:59:24.184Z,14.40
2018-06-07T01:01:52.219Z,14.50
2018-06-07T01:04:20.273Z,14.50
2018-06-07T01:06:48.372Z,14.60
2018-06-07T01:09:16.440Z,14.60
2018-06-07T01:11:44.467Z,14.60
2018-06-07T01:14:12.679Z,14.50
2018-06-07T01:16:40.763Z,14.50
2018-06-07T01:19:08.816Z,14.30
2018-06-07T01:21:37.026Z,14.10
2018-06-07T01:24:05.180Z,13.90
2018-06-07T01:26:33.240Z,13.60
2018-06-07T01:29:01.340Z,13.60
2018-06-07T01:31:54.382Z,13.60
2018-06-07T01:34:22.580Z,13.60
2018-06-07T01:36:50.646Z,13.80
2018-06-07T01:39:18.695Z,13.80
2018-06-07T01:41:46.798Z,13.90
2018-06-07T01:44:14.852Z,13.90
2018-06-07T01:46:42.902Z,13.90
2018-06-07T01:51:38.772Z,14.00
2018-06-07T01:54:06.923Z,14.00
2018-06-07T01:56:35.015Z,14.00
2018-06-07T01:59:03.191Z,14.00
2018-06-07T02:01:31.242Z,13.80
2018-06-07T02:03:59.430Z,13.70
2018-06-07T02:06:27.624Z,13.60
2018-06-07T02:08:55.663Z,13.60
2018-06-07T02:13:51.649Z,13.80
2018-06-07T02:16:19.684Z,13.80
2018-06-07T02:18:47.783Z,13.90
2018-06-07T02:21:15.851Z,13.90
2018-06-07T02:23:43.908Z,13.90
2018-06-07T02:28:39.863Z,13.90
2018-06-07T02:31:07.923Z,14.00
2018-06-07T02:33:36.013Z,14.10
2018-06-07T02:36:04.088Z,14.10
2018-06-07T02:38:32.128Z,14.20
2018-06-07T02:43:27.991Z,14.20
2018-06-07T02:45:56.050Z,14.30
2018-06-07T02:48:24.144Z,14.30
2018-06-07T02:50:52.315Z,14.20
2018-06-07T02:53:20.368Z,14.30
2018-06-07T02:55:48.478Z,14.30
2018-06-07T02:58:16.533Z,14.30
2018-06-07T03:00:44.593Z,14.30
2018-06-07T03:03:12.696Z,14.40
2018-06-07T03:05:40.762Z,14.50
2018-06-07T03:08:08.820Z,14.50
2018-06-07T03:10:36.908Z,14.50
2018-06-07T03:13:04.974Z,14.50
2018-06-07T03:15:33.132Z,14.50
2018-06-07T03:18:01.242Z,14.60
2018-06-07T03:20:29.314Z,14.60
2018-06-07T03:22:57.345Z,14.60
2018-06-07T03:27:53.217Z,14.50
2018-06-07T03:30:21.256Z,14.60
2018-06-07T03:35:21.107Z,14.50
2018-06-07T03:37:49.268Z,14.50
2018-06-07T03:42:48.007Z,14.50
2018-06-07T03:45:16.031Z,14.50
2018-06-07T03:47:44.035Z,14.50
2018-06-07T03:50:12.216Z,14.40
2018-06-07T03:52:40.310Z,14.40
2018-06-07T03:55:08.673Z,14.40
2018-06-07T03:57:36.753Z,14.40
2018-06-07T04:00:04.941Z,14.30
2018-06-07T04:02:33.108Z,14.30
2018-06-07T04:05:01.179Z,14.40
2018-06-07T04:07:29.215Z,14.40
2018-06-07T04:09:57.344Z,14.40
2018-06-07T04:12:25.387Z,14.40
2018-06-07T04:14:53.435Z,14.40
2018-06-07T04:17:21.637Z,14.40
2018-06-07T04:19:49.700Z,14.50
2018-06-07T04:22:17.758Z,14.50
2018-06-07T04:24:45.855Z,14.60
2018-06-07T04:27:14.041Z,14.70
2018-06-07T04:29:42.148Z,14.80
2018-06-07T04:32:10.194Z,14.80
2018-06-07T04:34:38.265Z,14.90
2018-06-07T04:37:06.623Z,15.70
2018-06-07T04:39:34.901Z,17.00
2018-06-07T04:42:03.094Z,17.80
2018-06-07T04:44:31.129Z,18.80
2018-06-07T04:49:27.096Z,20.20
2018-06-07T04:51:55.154Z,20.80
2018-06-07T04:54:23.256Z,21.40
2018-06-07T04:56:51.315Z,21.70
2018-06-07T04:59:19.366Z,21.80
2018-06-07T05:01:47.462Z,21.80
2018-06-07T05:04:15.545Z,21.50
2018-06-07T05:06:43.695Z,20.50
2018-06-07T05:11:39.559Z,19.40
2018-06-07T05:14:07.594Z,19.00
2018-06-07T05:19:03.460Z,18.70
2018-06-07T05:21:31.520Z,18.60
2018-06-07T05:23:59.632Z,18.50
2018-06-07T05:26:27.676Z,18.60
2018-06-07T05:28:55.754Z,18.50
2018-06-07T05:31:23.887Z,18.60
2018-06-07T05:33:51.890Z,18.40
2018-06-07T05:36:19.952Z,18.20
2018-06-07T05:38:48.090Z,18.10
2018-06-07T05:41:16.360Z,18.10
2018-06-07T05:43:44.378Z,18.40
2018-06-07T05:46:12.486Z,18.60
2018-06-07T05:48:40.554Z,18.60
2018-06-07T05:51:08.508Z,18.80
2018-06-07T05:53:36.589Z,18.80
2018-06-07T05:56:04.863Z,18.90
2018-06-07T05:58:32.915Z,19.10
2018-06-07T06:03:28.881Z,19.10
2018-06-07T06:05:56.944Z,19.10
2018-06-07T06:08:25.020Z,19.20
2018-06-07T06:10:53.077Z,19.20
2018-06-07T06:15:49.336Z,19.40
2018-06-07T06:18:17.408Z,19.60
2018-06-07T06:20:45.471Z,20.00
2018-06-07T06:23:13.567Z,20.20
2018-06-07T06:25:41.624Z,20.30
2018-06-07T06:28:09.644Z,20.50
2018-06-07T06:30:37.671Z,20.40
2018-06-07T06:33:05.759Z,20.30
2018-06-07T06:35:33.841Z,20.20
2018-06-07T06:39:06.125Z,20.30
2018-06-07T06:41:34.186Z,20.90
2018-06-07T06:44:02.337Z,21.40
2018-06-07T06:46:30.447Z,21.30
2018-06-07T06:48:58.506Z,21.50
2018-06-07T06:51:26.579Z,21.50
2018-06-07T06:53:54.624Z,21.20
2018-06-07T06:58:50.571Z,21.40
2018-06-07T07:01:18.664Z,21.40
2018-06-07T07:03:46.740Z,21.20
2018-06-07T07:06:14.834Z,21.10
2018-06-07T07:08:42.845Z,20.70
2018-06-07T07:11:10.967Z,21.00
2018-06-07T07:13:39.007Z,21.50
2018-06-07T07:16:07.217Z,21.90
2018-06-07T07:18:35.294Z,22.10
2018-06-07T07:21:03.332Z,22.30
2018-06-07T07:23:31.429Z,22.30
2018-06-07T07:25:59.472Z,22.10
2018-06-07T07:28:27.676Z,21.60
2018-06-07T07:30:55.735Z,21.30
2018-06-07T07:33:23.833Z,21.90
2018-06-07T07:35:52.011Z,22.50
2018-06-07T07:38:20.044Z,23.30
2018-06-07T07:40:48.133Z,23.50
2018-06-07T07:43:16.195Z,24.10
2018-06-07T07:45:44.392Z,24.10
2018-06-07T07:48:12.480Z,23.90
2018-06-07T07:50:40.531Z,24.30
2018-06-07T07:53:08.611Z,24.70
2018-06-07T07:55:36.773Z,25.40
2018-06-07T07:58:04.958Z,25.50
2018-06-07T08:00:33.090Z,25.80
2018-06-07T08:03:01.091Z,25.60
2018-06-07T08:05:29.189Z,25.40
2018-06-07T08:07:57.236Z,25.60
2018-06-07T08:10:25.328Z,25.60
2018-06-07T08:12:53.397Z,25.50
2018-06-07T08:15:21.480Z,25.00
2018-06-07T08:17:49.498Z,24.70
2018-06-07T08:20:17.524Z,24.40
2018-06-07T08:22:45.595Z,24.20
2018-06-07T08:25:13.639Z,24.20
2018-06-07T08:30:09.480Z,23.40
2018-06-07T08:32:37.578Z,23.20
2018-06-07T08:37:37.825Z,23.50
2018-06-07T08:40:05.886Z,24.20
2018-06-07T08:42:33.983Z,24.50
2018-06-07T08:45:02.054Z,24.70
2018-06-07T08:47:30.099Z,24.70
2018-06-07T08:49:58.186Z,25.50
2018-06-07T08:52:26.360Z,26.70
2018-06-07T08:54:59.262Z,26.80
2018-06-07T08:57:27.529Z,26.50
2018-06-07T08:59:55.679Z,26.00
2018-06-07T09:02:23.908Z,25.90
2018-06-07T09:04:51.924Z,25.10
2018-06-07T09:07:20.072Z,25.00
2018-06-07T09:09:48.280Z,24.90
2018-06-07T09:14:44.470Z,25.00
2018-06-07T09:17:12.499Z,25.10
2018-06-07T09:19:40.605Z,25.60
2018-06-07T09:22:08.651Z,25.60
2018-06-07T09:24:36.749Z,25.60
2018-06-07T09:27:04.822Z,25.80
2018-06-07T09:29:32.868Z,25.80
2018-06-07T09:32:00.963Z,25.30
2018-06-07T09:34:29.028Z,25.10
2018-06-07T09:36:57.204Z,25.10
2018-06-07T09:39:25.259Z,24.70
2018-06-07T09:41:53.351Z,24.60
2018-06-07T09:44:21.424Z,25.10
2018-06-07T09:46:49.500Z,25.50
2018-06-07T09:49:17.575Z,25.20
2018-06-07T09:51:45.683Z,25.30
2018-06-07T09:54:13.701Z,25.40
2018-06-07T09:56:41.803Z,25.30
2018-06-07T09:59:09.956Z,25.40
2018-06-07T10:01:38.154Z,25.70
2018-06-07T10:04:06.315Z,25.60
2018-06-07T10:06:34.467Z,25.70
2018-06-07T10:11:30.440Z,26.20
2018-06-07T10:13:58.496Z,26.20
2018-06-07T10:16:26.579Z,26.20
2018-06-07T10:18:54.656Z,26.30
2018-06-07T10:21:22.717Z,26.10
2018-06-07T10:23:50.903Z,26.10
2018-06-07T10:26:18.954Z,26.40
2018-06-07T10:28:47.038Z,26.70
2018-06-07T10:31:15.116Z,26.20
2018-06-07T10:33:43.198Z,26.50
2018-06-07T10:36:11.260Z,26.40
2018-06-07T10:38:39.347Z,25.90
2018-06-07T10:41:07.379Z,25.80
2018-06-07T10:46:03.256Z,25.80
2018-06-07T10:48:31.324Z,26.30
2018-06-07T10:50:59.403Z,26.60
2018-06-07T10:53:27.454Z,26.80
2018-06-07T10:55:55.672Z,26.60
2018-06-07T10:58:23.708Z,26.90
2018-06-07T11:00:51.776Z,27.10
2018-06-07T11:03:19.853Z,27.30
2018-06-07T11:05:47.947Z,27.30
2018-06-07T11:08:15.992Z,27.10
2018-06-07T11:10:44.096Z,26.90
2018-06-07T11:13:12.120Z,26.40
2018-06-07T11:15:40.235Z,26.40
2018-06-07T11:18:08.390Z,26.20
2018-06-07T11:20:36.480Z,26.40
2018-06-07T11:23:04.668Z,26.70
2018-06-07T11:25:32.692Z,27.00
2018-06-07T11:30:28.666Z,27.70
2018-06-07T11:32:56.732Z,27.70
2018-06-07T11:35:24.801Z,27.60
2018-06-07T11:37:52.993Z,27.40
2018-06-07T11:40:21.058Z,27.10
2018-06-07T11:42:49.246Z,26.80
2018-06-07T11:45:17.308Z,27.10
2018-06-07T11:47:45.369Z,27.10
2018-06-07T11:50:13.462Z,27.20
2018-06-07T11:52:41.529Z,27.40
2018-06-07T11:55:09.627Z,26.90
2018-06-07T11:57:37.657Z,26.50
2018-06-07T12:02:33.520Z,26.80
2018-06-07T12:05:01.576Z,27.10
2018-06-07T12:07:29.676Z,27.20
2018-06-07T12:09:57.732Z,27.30
2018-06-07T12:12:25.848Z,27.60
2018-06-07T12:14:53.888Z,27.60
2018-06-07T12:17:21.935Z,27.80
2018-06-07T12:22:17.805Z,28.10
2018-06-07T12:24:45.854Z,27.40
2018-06-07T12:29:41.815Z,27.90
2018-06-07T12:32:09.891Z,28.10
2018-06-07T12:34:37.982Z,27.90
2018-06-07T12:37:05.299Z,27.70
2018-06-07T12:39:32.688Z,27.30
2018-06-07T12:42:00.045Z,26.80
2018-06-07T12:44:27.362Z,26.40
2018-06-07T12:49:21.766Z,26.50
2018-06-07T12:54:16.202Z,27.00
2018-06-07T12:56:43.534Z,26.90
2018-06-07T12:59:10.910Z,26.80
2018-06-07T13:01:38.250Z,27.00
2018-06-07T13:04:05.627Z,27.00
2018-06-07T13:06:32.970Z,27.20
2018-06-07T13:09:00.330Z,27.30
2018-06-07T13:11:27.689Z,27.40
2018-06-07T13:13:55.230Z,27.70
2018-06-07T13:18:49.664Z,27.70
2018-06-07T13:21:16.998Z,27.60
2018-06-07T13:23:44.371Z,27.70
2018-06-07T13:26:11.706Z,27.90
2018-06-07T13:31:06.114Z,28.00
2018-06-07T13:33:33.490Z,28.40
2018-06-07T13:36:00.927Z,28.60
2018-06-07T13:40:55.411Z,28.40
2018-06-07T13:43:22.634Z,28.30
2018-06-07T13:45:49.970Z,28.10
2018-06-07T13:48:17.297Z,28.50
2018-06-07T13:53:11.751Z,29.10
2018-06-07T13:55:39.054Z,28.90
2018-06-07T14:00:33.590Z,28.60
2018-06-07T14:03:00.927Z,28.40
2018-06-07T14:10:22.383Z,28.10
2018-06-07T14:12:49.859Z,28.00
2018-06-07T14:15:17.214Z,28.10
2018-06-07T14:17:44.546Z,27.80
2018-06-07T14:22:38.959Z,28.20
2018-06-07T14:27:33.370Z,29.00
2018-06-07T14:30:00.838Z,29.40
2018-06-07T14:32:28.901Z,29.50
2018-06-07T14:34:57.053Z,29.30
2018-06-07T14:42:21.244Z,29.30
2018-06-07T14:44:49.307Z,29.00
2018-06-07T14:47:17.361Z,29.10
2018-06-07T14:49:45.409Z,29.40
2018-06-07T14:52:13.517Z,29.30
2018-06-07T14:54:41.574Z,29.00
2018-06-07T14:57:09.763Z,28.90
2018-06-07T14:59:37.828Z,28.50
2018-06-07T15:02:05.918Z,28.30
2018-06-07T15:04:33.988Z,27.90
2018-06-07T15:07:02.021Z,27.40
2018-06-07T15:09:30.133Z,27.00
2018-06-07T15:11:57.468Z,26.70
2018-06-07T15:14:24.843Z,26.40
2018-06-07T15:16:52.189Z,26.20
2018-06-07T15:19:19.559Z,25.80
2018-06-07T15:21:46.907Z,25.30
2018-06-07T15:24:14.342Z,25.20
2018-06-07T15:26:41.717Z,25.10
2018-06-07T15:29:09.053Z,24.80
2018-06-07T15:31:36.439Z,24.10
2018-06-07T15:34:03.767Z,23.70
2018-06-07T15:36:31.133Z,23.50
2018-06-07T15:38:58.515Z,23.20
2018-06-07T15:41:26.145Z,23.00
2018-06-07T15:43:53.509Z,23.00
2018-06-07T15:46:20.859Z,22.90
2018-06-07T15:48:48.231Z,22.70
2018-06-07T15:51:15.623Z,22.40
2018-06-07T15:53:42.947Z,22.40
2018-06-07T15:56:10.298Z,22.30
2018-06-07T15:58:37.632Z,22.20
2018-06-07T16:03:32.141Z,22.00
2018-06-07T16:05:59.529Z,21.80
2018-06-07T16:08:26.859Z,21.50
2018-06-07T16:10:54.241Z,21.20
2018-06-07T16:13:21.611Z,21.00
2018-06-07T16:15:48.956Z,20.80
2018-06-07T16:18:16.305Z,20.60
2018-06-07T16:20:43.640Z,20.40
2018-06-07T16:23:11.011Z,20.20
2018-06-07T16:25:38.370Z,20.20
2018-06-07T16:28:05.702Z,20.10
2018-06-07T16:36:30.629Z,19.90
2018-06-07T16:39:04.489Z,19.80
2018-06-07T16:41:39.526Z,19.80
2018-06-07T16:44:18.734Z,19.80
2018-06-07T16:46:53.897Z,19.70
2018-06-07T16:49:32.371Z,19.60
2018-06-07T16:52:08.608Z,19.40
2018-06-07T16:54:46.088Z,19.30
2018-06-07T16:57:19.172Z,19.20
2018-06-07T16:59:54.808Z,19.20
2018-06-07T17:02:30.219Z,19.10
2018-06-07T17:07:35.054Z,19.00
2018-06-07T17:10:04.492Z,18.90
2018-06-07T17:12:33.435Z,18.90
2018-06-07T17:15:02.530Z,18.90
2018-06-07T17:17:38.684Z,18.90
2018-06-07T17:20:16.766Z,18.90
2018-06-07T17:22:56.014Z,18.90
2018-06-07T17:25:32.777Z,18.90
2018-06-07T17:28:09.778Z,18.90
2018-06-07T17:30:47.166Z,18.90
2018-06-07T17:33:23.221Z,18.90
2018-06-07T17:35:59.607Z,18.90
2018-06-07T17:38:31.765Z,19.00
2018-06-07T17:41:10.298Z,19.00
2018-06-07T17:43:44.364Z,19.00
2018-06-07T17:46:18.156Z,18.90
2018-06-07T17:48:51.907Z,18.90
2018-06-07T17:51:25.665Z,18.90
2018-06-07T17:53:58.803Z,19.00
2018-06-07T17:56:31.605Z,19.00
2018-06-07T17:59:04.214Z,19.00
2018-06-07T18:04:15.445Z,19.00
2018-06-07T18:06:51.063Z,19.00
2018-06-07T18:11:57.876Z,19.00
2018-06-07T18:14:30.016Z,19.00
2018-06-07T18:17:02.373Z,18.90
2018-06-07T18:19:36.339Z,18.90
2018-06-07T18:22:07.908Z,18.90
2018-06-07T18:24:40.779Z,18.80
2018-06-07T18:27:13.611Z,18.80
2018-06-07T18:29:46.607Z,18.80
2018-06-07T18:32:19.213Z,18.80
2018-06-07T18:34:52.323Z,18.80
2018-06-07T18:39:59.704Z,18.70
2018-06-07T18:42:31.399Z,18.60
2018-06-07T18:45:02.419Z,18.50
2018-06-07T18:47:33.630Z,18.50
2018-06-07T18:50:04.670Z,18.40
2018-06-07T18:52:32.752Z,18.40
2018-06-07T18:55:00.885Z,18.30
2018-06-07T18:57:29.072Z,18.20
2018-06-07T18:59:57.194Z,18.20
2018-06-07T19:02:25.329Z,18.10
2018-06-07T19:04:53.365Z,18.00
2018-06-07T19:07:23.096Z,18.00
2018-06-07T19:09:57.140Z,18.00
2018-06-07T19:12:25.203Z,18.00
2018-06-07T19:14:58.757Z,18.00
2018-06-07T19:20:00.306Z,18.00
2018-06-07T19:22:28.345Z,17.90
2018-06-07T19:25:01.984Z,17.90
2018-06-07T19:27:30.222Z,17.90
2018-06-07T19:29:58.417Z,17.80
2018-06-07T19:32:31.806Z,17.80
2018-06-07T19:35:06.619Z,17.80
2018-06-07T19:37:34.815Z,17.70
2018-06-07T19:40:08.491Z,17.60
2018-06-07T19:42:36.578Z,17.60
2018-06-07T19:45:04.756Z,17.60
2018-06-07T19:47:32.911Z,17.50
2018-06-07T19:52:28.994Z,17.50
2018-06-07T19:54:57.076Z,17.50
2018-06-07T19:57:29.680Z,17.50
2018-06-07T20:02:28.549Z,17.40
2018-06-07T20:04:56.667Z,17.40
2018-06-07T20:07:25.006Z,17.30
2018-06-07T20:09:53.056Z,17.30
2018-06-07T20:12:21.149Z,17.30
2018-06-07T20:14:49.194Z,17.30
2018-06-07T20:17:17.308Z,17.20
2018-06-07T20:19:45.358Z,17.20
2018-06-07T20:22:13.423Z,17.20
2018-06-07T20:24:41.469Z,17.10
2018-06-07T20:29:37.432Z,17.10
2018-06-07T20:32:05.511Z,17.10
2018-06-07T20:37:38.329Z,17.20
2018-06-07T20:40:06.566Z,17.20
2018-06-07T20:45:02.531Z,17.20
2018-06-07T20:47:30.615Z,17.20
2018-06-07T20:49:58.772Z,17.20
2018-06-07T20:52:26.868Z,17.20
2018-06-07T20:54:54.913Z,17.10
2018-06-07T20:59:50.848Z,17.10
2018-06-07T21:04:46.749Z,17.00
2018-06-07T21:07:14.767Z,17.00
2018-06-07T21:09:42.953Z,17.00
2018-06-07T21:12:11.020Z,17.00
2018-06-07T21:14:39.211Z,17.00
2018-06-07T21:17:07.284Z,17.00
2018-06-07T21:19:35.555Z,16.90
2018-06-07T21:22:03.820Z,16.90
2018-06-07T21:24:31.908Z,16.90
2018-06-07T21:27:00.002Z,16.90
2018-06-07T21:29:28.199Z,16.90
2018-06-07T21:31:56.346Z,16.90
2018-06-07T21:34:24.400Z,16.90
2018-06-07T21:36:52.694Z,17.00
2018-06-07T21:39:20.824Z,16.90
2018-06-07T21:41:48.937Z,16.80
2018-06-07T21:44:16.972Z,16.70
2018-06-07T21:46:45.093Z,16.60
2018-06-07T21:49:13.132Z,16.60
2018-06-07T21:51:41.437Z,16.70
2018-06-07T21:54:09.479Z,16.70
2018-06-07T21:59:05.535Z,16.70
2018-06-07T22:01:33.644Z,16.70
2018-06-07T22:04:01.685Z,16.70
2018-06-07T22:06:29.762Z,16.70
2018-06-07T22:08:57.920Z,16.60
2018-06-07T22:13:53.859Z,16.40
2018-06-07T22:18:49.727Z,16.30
2018-06-07T22:21:17.776Z,16.40
2018-06-07T22:26:13.734Z,16.40
2018-06-07T22:28:41.831Z,16.40
2018-06-07T22:31:09.984Z,16.50
2018-06-07T22:33:38.071Z,16.50
2018-06-07T22:36:06.114Z,16.50
2018-06-07T22:38:34.224Z,16.60
2018-06-07T22:41:02.489Z,16.60
2018-06-07T22:43:30.677Z,16.70
2018-06-07T22:45:58.722Z,16.70
2018-06-07T22:48:26.919Z,16.70
2018-06-07T22:50:55.064Z,16.80
2018-06-07T23:00:46.669Z,16.80
2018-06-07T23:03:14.739Z,16.80
2018-06-07T23:05:42.802Z,16.70
2018-06-07T23:08:10.854Z,16.70
2018-06-07T23:10:40.183Z,16.70
2018-06-07T23:13:09.835Z,16.70
2018-06-07T23:16:00.549Z,16.80
2018-06-07T23:18:33.659Z,16.80
2018-06-07T23:23:29.636Z,16.80
2018-06-07T23:25:57.735Z,16.80
2018-06-07T23:28:25.789Z,16.80
2018-06-07T23:30:54.021Z,16.80
2018-06-07T23:38:17.856Z,16.90
2018-06-07T23:40:45.953Z,16.90
2018-06-07T23:43:14.012Z,16.90
2018-06-07T23:45:42.052Z,17.00
2018-06-07T23:50:38.105Z,17.00
2018-06-07T23:55:33.986Z,17.00
2018-06-07T23:58:02.020Z,17.00
